sensor_id;sensor_type;location;lat;lon;timestamp;pressure;altitude;pressure_sealevel;temperature;humidity
61478;BME280;47345;52.334;10.392;2022-12-20T00:02:22;100897.56;;;5.28;88.10
61478;BME280;47345;52.334;10.392;2022-12-20T00:04:54;100894.86;;;5.30;88.20
61478;BME280;47345;52.334;10.392;2022-12-20T00:07:25;100901.55;;;5.30;88.17
61478;BME280;47345;52.334;10.392;2022-12-20T00:09:56;100898.55;;;5.30;88.22
61478;BME280;47345;52.334;10.392;2022-12-20T00:12:26;100896.85;;;5.31;88.20
61478;BME280;47345;52.334;10.392;2022-12-20T00:14:57;100891.66;;;5.30;88.19
61478;BME280;47345;52.334;10.392;2022-12-20T00:17:28;100885.44;;;5.30;88.32
61478;BME280;47345;52.334;10.392;2022-12-20T00:19:58;100888.17;;;5.29;88.45
61478;BME280;47345;52.334;10.392;2022-12-20T00:22:29;100885.88;;;5.29;88.65
61478;BME280;47345;52.334;10.392;2022-12-20T00:25:00;100885.30;;;5.31;88.69
61478;BME280;47345;52.334;10.392;2022-12-20T00:27:30;100873.89;;;5.31;88.76
61478;BME280;47345;52.334;10.392;2022-12-20T00:30:01;100870.20;;;5.34;88.78
61478;BME280;47345;52.334;10.392;2022-12-20T00:32:31;100873.12;;;5.35;88.69
61478;BME280;47345;52.334;10.392;2022-12-20T00:35:02;100875.79;;;5.37;88.69
61478;BME280;47345;52.334;10.392;2022-12-20T00:37:34;100877.42;;;5.39;88.76
61478;BME280;47345;52.334;10.392;2022-12-20T00:40:05;100878.81;;;5.41;88.70
61478;BME280;47345;52.334;10.392;2022-12-20T00:42:36;100875.55;;;5.43;88.68
61478;BME280;47345;52.334;10.392;2022-12-20T00:45:08;100873.38;;;5.44;88.61
61478;BME280;47345;52.334;10.392;2022-12-20T00:47:39;100871.04;;;5.45;88.63
61478;BME280;47345;52.334;10.392;2022-12-20T00:50:10;100880.64;;;5.47;88.70
61478;BME280;47345;52.334;10.392;2022-12-20T00:52:40;100881.63;;;5.48;88.60
61478;BME280;47345;52.334;10.392;2022-12-20T00:55:11;100876.70;;;5.49;88.47
61478;BME280;47345;52.334;10.392;2022-12-20T00:57:41;100880.14;;;5.49;88.53
61478;BME280;47345;52.334;10.392;2022-12-20T01:00:13;100872.36;;;5.48;88.67
61478;BME280;47345;52.334;10.392;2022-12-20T01:02:44;100868.98;;;5.50;88.63
61478;BME280;47345;52.334;10.392;2022-12-20T01:05:14;100869.34;;;5.51;88.70
61478;BME280;47345;52.334;10.392;2022-12-20T01:07:45;100875.79;;;5.54;88.70
61478;BME280;47345;52.334;10.392;2022-12-20T01:10:16;100875.34;;;5.54;88.67
61478;BME280;47345;52.334;10.392;2022-12-20T01:12:46;100879.05;;;5.57;88.58
61478;BME280;47345;52.334;10.392;2022-12-20T01:15:17;100877.04;;;5.58;88.62
61478;BME280;47345;52.334;10.392;2022-12-20T01:17:48;100880.38;;;5.59;88.57
61478;BME280;47345;52.334;10.392;2022-12-20T01:20:19;100872.66;;;5.60;88.51
61478;BME280;47345;52.334;10.392;2022-12-20T01:22:50;100866.86;;;5.60;88.48
61478;BME280;47345;52.334;10.392;2022-12-20T01:25:21;100865.54;;;5.59;88.48
61478;BME280;47345;52.334;10.392;2022-12-20T01:27:53;100865.36;;;5.59;88.50
61478;BME280;47345;52.334;10.392;2022-12-20T01:30:24;100860.48;;;5.57;88.50
61478;BME280;47345;52.334;10.392;2022-12-20T01:32:55;100854.18;;;5.57;88.55
61478;BME280;47345;52.334;10.392;2022-12-20T01:35:25;100852.23;;;5.57;88.72
61478;BME280;47345;52.334;10.392;2022-12-20T01:37:55;100845.62;;;5.58;88.67
61478;BME280;47345;52.334;10.392;2022-12-20T01:40:26;100845.90;;;5.57;88.78
61478;BME280;47345;52.334;10.392;2022-12-20T01:42:57;100845.47;;;5.56;88.74
61478;BME280;47345;52.334;10.392;2022-12-20T01:45:29;100852.17;;;5.56;88.83
61478;BME280;47345;52.334;10.392;2022-12-20T01:48:01;100858.27;;;5.55;88.87
61478;BME280;47345;52.334;10.392;2022-12-20T01:50:31;100851.13;;;5.54;88.80
61478;BME280;47345;52.334;10.392;2022-12-20T01:53:03;100856.33;;;5.53;89.03
61478;BME280;47345;52.334;10.392;2022-12-20T01:55:34;100854.75;;;5.52;89.17
61478;BME280;47345;52.334;10.392;2022-12-20T01:58:07;100847.64;;;5.51;89.28
61478;BME280;47345;52.334;10.392;2022-12-20T02:00:39;100840.54;;;5.52;89.23
61478;BME280;47345;52.334;10.392;2022-12-20T02:03:12;100837.27;;;5.52;89.41
61478;BME280;47345;52.334;10.392;2022-12-20T02:05:44;100829.35;;;5.53;89.53
61478;BME280;47345;52.334;10.392;2022-12-20T02:08:17;100833.52;;;5.55;89.62
61478;BME280;47345;52.334;10.392;2022-12-20T02:11:05;100832.61;;;5.56;89.68
61478;BME280;47345;52.334;10.392;2022-12-20T02:13:47;100822.70;;;5.57;89.73
61478;BME280;47345;52.334;10.392;2022-12-20T02:16:23;100824.92;;;5.60;89.83
61478;BME280;47345;52.334;10.392;2022-12-20T02:19:02;100827.33;;;5.63;89.74
61478;BME280;47345;52.334;10.392;2022-12-20T02:21:39;100831.34;;;5.66;89.78
61478;BME280;47345;52.334;10.392;2022-12-20T02:24:43;100832.48;;;5.69;89.83
61478;BME280;47345;52.334;10.392;2022-12-20T02:27:36;100820.20;;;5.72;89.67
61478;BME280;47345;52.334;10.392;2022-12-20T02:30:14;100815.20;;;5.74;89.66
61478;BME280;47345;52.334;10.392;2022-12-20T02:32:53;100822.19;;;5.77;89.87
61478;BME280;47345;52.334;10.392;2022-12-20T02:35:28;100818.08;;;5.80;89.84
61478;BME280;47345;52.334;10.392;2022-12-20T02:38:23;100806.38;;;5.82;89.89
61478;BME280;47345;52.334;10.392;2022-12-20T02:40:57;100816.14;;;5.87;89.97
61478;BME280;47345;52.334;10.392;2022-12-20T02:43:31;100820.95;;;5.89;89.71
61478;BME280;47345;52.334;10.392;2022-12-20T02:46:21;100825.06;;;5.93;89.65
61478;BME280;47345;52.334;10.392;2022-12-20T02:48:55;100818.62;;;5.96;89.78
61478;BME280;47345;52.334;10.392;2022-12-20T02:51:29;100821.20;;;5.98;89.77
61478;BME280;47345;52.334;10.392;2022-12-20T02:54:02;100826.67;;;6.01;89.67
61478;BME280;47345;52.334;10.392;2022-12-20T02:56:36;100822.15;;;6.05;89.78
61478;BME280;47345;52.334;10.392;2022-12-20T02:59:10;100815.92;;;6.09;89.95
61478;BME280;47345;52.334;10.392;2022-12-20T03:01:46;100803.77;;;6.12;89.81
61478;BME280;47345;52.334;10.392;2022-12-20T03:04:20;100804.48;;;6.15;89.83
61478;BME280;47345;52.334;10.392;2022-12-20T03:07:00;100799.86;;;6.17;89.81
61478;BME280;47345;52.334;10.392;2022-12-20T03:09:33;100793.54;;;6.21;89.73
61478;BME280;47345;52.334;10.392;2022-12-20T03:12:04;100795.35;;;6.24;89.97
61478;BME280;47345;52.334;10.392;2022-12-20T03:14:35;100806.08;;;6.27;89.74
61478;BME280;47345;52.334;10.392;2022-12-20T03:17:06;100808.73;;;6.29;89.64
61478;BME280;47345;52.334;10.392;2022-12-20T03:19:37;100798.45;;;6.30;89.68
61478;BME280;47345;52.334;10.392;2022-12-20T03:22:08;100800.84;;;6.33;89.77
61478;BME280;47345;52.334;10.392;2022-12-20T03:24:39;100799.25;;;6.32;89.68
61478;BME280;47345;52.334;10.392;2022-12-20T03:27:09;100793.50;;;6.35;89.53
61478;BME280;47345;52.334;10.392;2022-12-20T03:29:40;100791.71;;;6.37;89.58
61478;BME280;47345;52.334;10.392;2022-12-20T03:32:11;100792.63;;;6.38;89.73
61478;BME280;47345;52.334;10.392;2022-12-20T03:34:42;100798.08;;;6.40;89.57
61478;BME280;47345;52.334;10.392;2022-12-20T03:37:13;100794.52;;;6.41;89.67
61478;BME280;47345;52.334;10.392;2022-12-20T03:39:45;100790.80;;;6.43;89.59
61478;BME280;47345;52.334;10.392;2022-12-20T03:42:16;100792.45;;;6.44;89.56
61478;BME280;47345;52.334;10.392;2022-12-20T03:44:47;100787.95;;;6.45;89.66
61478;BME280;47345;52.334;10.392;2022-12-20T03:47:18;100786.08;;;6.48;89.64
61478;BME280;47345;52.334;10.392;2022-12-20T03:49:49;100776.66;;;6.49;89.63
61478;BME280;47345;52.334;10.392;2022-12-20T03:52:20;100766.58;;;6.52;89.84
61478;BME280;47345;52.334;10.392;2022-12-20T03:54:51;100771.23;;;6.54;89.78
61478;BME280;47345;52.334;10.392;2022-12-20T03:57:22;100780.40;;;6.56;89.78
61478;BME280;47345;52.334;10.392;2022-12-20T03:59:53;100782.75;;;6.59;89.77
61478;BME280;47345;52.334;10.392;2022-12-20T04:02:24;100795.38;;;6.61;89.70
61478;BME280;47345;52.334;10.392;2022-12-20T04:04:55;100793.52;;;6.63;89.51
61478;BME280;47345;52.334;10.392;2022-12-20T04:07:25;100793.55;;;6.64;89.46
61478;BME280;47345;52.334;10.392;2022-12-20T04:09:56;100792.77;;;6.67;89.53
61478;BME280;47345;52.334;10.392;2022-12-20T04:12:26;100790.70;;;6.69;89.35
61478;BME280;47345;52.334;10.392;2022-12-20T04:14:57;100791.37;;;6.71;89.36
61478;BME280;47345;52.334;10.392;2022-12-20T04:17:28;100793.69;;;6.71;89.18
61478;BME280;47345;52.334;10.392;2022-12-20T04:19:59;100793.09;;;6.73;89.26
61478;BME280;47345;52.334;10.392;2022-12-20T04:22:48;100792.73;;;6.76;89.20
61478;BME280;47345;52.334;10.392;2022-12-20T04:25:20;100789.45;;;6.78;89.06
61478;BME280;47345;52.334;10.392;2022-12-20T04:27:51;100785.06;;;6.80;89.10
61478;BME280;47345;52.334;10.392;2022-12-20T04:30:21;100778.75;;;6.81;88.87
61478;BME280;47345;52.334;10.392;2022-12-20T04:32:53;100781.87;;;6.84;88.94
61478;BME280;47345;52.334;10.392;2022-12-20T04:35:23;100789.56;;;6.86;88.81
61478;BME280;47345;52.334;10.392;2022-12-20T04:37:54;100793.87;;;6.88;88.82
61478;BME280;47345;52.334;10.392;2022-12-20T04:40:25;100795.75;;;6.89;88.67
61478;BME280;47345;52.334;10.392;2022-12-20T04:42:56;100800.71;;;6.90;88.79
61478;BME280;47345;52.334;10.392;2022-12-20T04:45:26;100803.20;;;6.92;88.61
61478;BME280;47345;52.334;10.392;2022-12-20T04:47:57;100807.71;;;6.94;88.81
61478;BME280;47345;52.334;10.392;2022-12-20T04:50:50;100807.27;;;6.95;88.46
61478;BME280;47345;52.334;10.392;2022-12-20T04:53:21;100813.96;;;6.95;88.56
61478;BME280;47345;52.334;10.392;2022-12-20T04:56:09;100815.33;;;6.94;88.53
61478;BME280;47345;52.334;10.392;2022-12-20T04:58:40;100810.42;;;6.98;88.49
61478;BME280;47345;52.334;10.392;2022-12-20T05:01:11;100805.15;;;6.98;88.57
61478;BME280;47345;52.334;10.392;2022-12-20T05:03:43;100805.11;;;6.98;88.52
61478;BME280;47345;52.334;10.392;2022-12-20T05:06:13;100810.27;;;6.99;88.64
61478;BME280;47345;52.334;10.392;2022-12-20T05:08:44;100808.20;;;7.01;88.66
61478;BME280;47345;52.334;10.392;2022-12-20T05:11:15;100813.37;;;7.01;88.54
61478;BME280;47345;52.334;10.392;2022-12-20T05:13:46;100808.42;;;7.03;88.56
61478;BME280;47345;52.334;10.392;2022-12-20T05:16:16;100810.30;;;7.05;88.21
61478;BME280;47345;52.334;10.392;2022-12-20T05:18:47;100810.54;;;7.05;88.29
61478;BME280;47345;52.334;10.392;2022-12-20T05:21:18;100807.65;;;7.07;88.30
61478;BME280;47345;52.334;10.392;2022-12-20T05:24:07;100805.41;;;7.07;88.29
61478;BME280;47345;52.334;10.392;2022-12-20T05:26:55;100799.61;;;7.09;88.18
61478;BME280;47345;52.334;10.392;2022-12-20T05:29:25;100796.77;;;7.10;88.25
61478;BME280;47345;52.334;10.392;2022-12-20T05:31:56;100790.77;;;7.10;88.10
61478;BME280;47345;52.334;10.392;2022-12-20T05:34:26;100788.81;;;7.12;88.19
61478;BME280;47345;52.334;10.392;2022-12-20T05:36:57;100793.62;;;7.14;88.32
61478;BME280;47345;52.334;10.392;2022-12-20T05:39:28;100792.61;;;7.16;88.45
61478;BME280;47345;52.334;10.392;2022-12-20T05:41:59;100793.27;;;7.18;88.34
61478;BME280;47345;52.334;10.392;2022-12-20T05:44:29;100792.77;;;7.19;88.33
61478;BME280;47345;52.334;10.392;2022-12-20T05:47:00;100798.84;;;7.20;88.46
61478;BME280;47345;52.334;10.392;2022-12-20T05:49:31;100795.03;;;7.20;88.24
61478;BME280;47345;52.334;10.392;2022-12-20T05:52:03;100798.50;;;7.20;88.50
61478;BME280;47345;52.334;10.392;2022-12-20T05:54:33;100797.75;;;7.20;88.55
61478;BME280;47345;52.334;10.392;2022-12-20T05:57:04;100791.94;;;7.20;88.53
61478;BME280;47345;52.334;10.392;2022-12-20T05:59:34;100791.64;;;7.19;88.66
61478;BME280;47345;52.334;10.392;2022-12-20T06:02:05;100795.98;;;7.20;88.82
61478;BME280;47345;52.334;10.392;2022-12-20T06:04:36;100787.22;;;7.18;88.90
61478;BME280;47345;52.334;10.392;2022-12-20T06:07:07;100788.44;;;7.19;89.00
61478;BME280;47345;52.334;10.392;2022-12-20T06:09:38;100787.63;;;7.18;89.20
61478;BME280;47345;52.334;10.392;2022-12-20T06:12:08;100783.70;;;7.18;89.31
61478;BME280;47345;52.334;10.392;2022-12-20T06:14:39;100786.96;;;7.16;89.50
61478;BME280;47345;52.334;10.392;2022-12-20T06:17:10;100787.44;;;7.17;89.38
61478;BME280;47345;52.334;10.392;2022-12-20T06:19:41;100787.61;;;7.17;89.63
61478;BME280;47345;52.334;10.392;2022-12-20T06:22:12;100788.84;;;7.19;89.74
61478;BME280;47345;52.334;10.392;2022-12-20T06:24:43;100788.38;;;7.19;89.70
61478;BME280;47345;52.334;10.392;2022-12-20T06:27:17;100786.79;;;7.21;89.57
61478;BME280;47345;52.334;10.392;2022-12-20T06:29:49;100782.40;;;7.22;89.49
61478;BME280;47345;52.334;10.392;2022-12-20T06:32:22;100786.50;;;7.23;89.47
61478;BME280;47345;52.334;10.392;2022-12-20T06:34:53;100788.14;;;7.23;89.42
61478;BME280;47345;52.334;10.392;2022-12-20T06:37:24;100786.80;;;7.23;89.33
61478;BME280;47345;52.334;10.392;2022-12-20T06:39:54;100792.27;;;7.23;89.19
61478;BME280;47345;52.334;10.392;2022-12-20T06:42:25;100796.16;;;7.23;89.31
61478;BME280;47345;52.334;10.392;2022-12-20T06:44:56;100794.83;;;7.23;89.29
61478;BME280;47345;52.334;10.392;2022-12-20T06:47:26;100790.67;;;7.23;89.24
61478;BME280;47345;52.334;10.392;2022-12-20T06:49:57;100791.32;;;7.24;89.18
61478;BME280;47345;52.334;10.392;2022-12-20T06:52:27;100787.25;;;7.23;89.20
61478;BME280;47345;52.334;10.392;2022-12-20T06:54:58;100790.73;;;7.22;89.12
61478;BME280;47345;52.334;10.392;2022-12-20T06:57:28;100785.92;;;7.22;89.20
61478;BME280;47345;52.334;10.392;2022-12-20T06:59:59;100790.79;;;7.22;89.24
61478;BME280;47345;52.334;10.392;2022-12-20T07:02:29;100793.35;;;7.22;89.36
61478;BME280;47345;52.334;10.392;2022-12-20T07:05:00;100788.52;;;7.21;89.21
61478;BME280;47345;52.334;10.392;2022-12-20T07:07:30;100795.39;;;7.22;89.09
61478;BME280;47345;52.334;10.392;2022-12-20T07:10:09;100791.98;;;7.20;89.32
61478;BME280;47345;52.334;10.392;2022-12-20T07:12:39;100793.60;;;7.20;89.40
61478;BME280;47345;52.334;10.392;2022-12-20T07:15:16;100790.97;;;7.21;89.38
61478;BME280;47345;52.334;10.392;2022-12-20T07:17:47;100789.20;;;7.19;89.33
61478;BME280;47345;52.334;10.392;2022-12-20T07:20:17;100788.64;;;7.19;89.52
61478;BME280;47345;52.334;10.392;2022-12-20T07:22:48;100780.96;;;7.18;89.48
61478;BME280;47345;52.334;10.392;2022-12-20T07:25:19;100776.11;;;7.17;89.48
61478;BME280;47345;52.334;10.392;2022-12-20T07:27:50;100777.00;;;7.18;89.54
61478;BME280;47345;52.334;10.392;2022-12-20T07:30:21;100777.17;;;7.18;89.46
61478;BME280;47345;52.334;10.392;2022-12-20T07:32:54;100769.50;;;7.18;89.59
61478;BME280;47345;52.334;10.392;2022-12-20T07:35:25;100767.20;;;7.18;89.75
61478;BME280;47345;52.334;10.392;2022-12-20T07:37:56;100768.79;;;7.18;89.80
61478;BME280;47345;52.334;10.392;2022-12-20T07:40:26;100765.96;;;7.19;89.79
61478;BME280;47345;52.334;10.392;2022-12-20T07:42:57;100763.06;;;7.19;89.92
61478;BME280;47345;52.334;10.392;2022-12-20T07:45:27;100766.74;;;7.18;89.90
61478;BME280;47345;52.334;10.392;2022-12-20T07:47:58;100767.05;;;7.19;90.00
61478;BME280;47345;52.334;10.392;2022-12-20T07:50:38;100771.66;;;7.20;90.22
61478;BME280;47345;52.334;10.392;2022-12-20T07:53:09;100769.36;;;7.19;90.10
61478;BME280;47345;52.334;10.392;2022-12-20T07:55:41;100774.14;;;7.20;90.27
61478;BME280;47345;52.334;10.392;2022-12-20T07:58:12;100768.42;;;7.21;90.36
61478;BME280;47345;52.334;10.392;2022-12-20T08:00:44;100770.41;;;7.23;90.62
61478;BME280;47345;52.334;10.392;2022-12-20T08:03:18;100767.04;;;7.23;90.63
61478;BME280;47345;52.334;10.392;2022-12-20T08:05:52;100771.27;;;7.24;90.87
61478;BME280;47345;52.334;10.392;2022-12-20T08:08:25;100776.95;;;7.26;90.85
61478;BME280;47345;52.334;10.392;2022-12-20T08:10:55;100781.61;;;7.26;90.89
61478;BME280;47345;52.334;10.392;2022-12-20T08:13:27;100780.21;;;7.26;91.03
61478;BME280;47345;52.334;10.392;2022-12-20T08:15:57;100776.00;;;7.26;91.13
61478;BME280;47345;52.334;10.392;2022-12-20T08:18:28;100773.65;;;7.26;91.25
61478;BME280;47345;52.334;10.392;2022-12-20T08:21:00;100772.09;;;7.27;91.33
61478;BME280;47345;52.334;10.392;2022-12-20T08:23:31;100760.91;;;7.28;91.50
61478;BME280;47345;52.334;10.392;2022-12-20T08:26:02;100757.98;;;7.28;91.37
61478;BME280;47345;52.334;10.392;2022-12-20T08:28:33;100762.54;;;7.30;91.43
61478;BME280;47345;52.334;10.392;2022-12-20T08:31:05;100764.67;;;7.30;91.44
61478;BME280;47345;52.334;10.392;2022-12-20T08:33:37;100761.70;;;7.30;91.46
61478;BME280;47345;52.334;10.392;2022-12-20T08:36:10;100751.70;;;7.31;91.52
61478;BME280;47345;52.334;10.392;2022-12-20T08:38:41;100750.67;;;7.32;91.35
61478;BME280;47345;52.334;10.392;2022-12-20T08:41:13;100749.53;;;7.33;91.35
61478;BME280;47345;52.334;10.392;2022-12-20T08:43:44;100741.97;;;7.34;91.24
61478;BME280;47345;52.334;10.392;2022-12-20T08:46:15;100741.82;;;7.36;91.30
61478;BME280;47345;52.334;10.392;2022-12-20T08:48:45;100749.77;;;7.37;91.34
61478;BME280;47345;52.334;10.392;2022-12-20T08:51:16;100749.30;;;7.38;91.10
61478;BME280;47345;52.334;10.392;2022-12-20T08:53:46;100746.86;;;7.39;91.12
61478;BME280;47345;52.334;10.392;2022-12-20T08:56:17;100749.34;;;7.41;90.93
61478;BME280;47345;52.334;10.392;2022-12-20T08:58:48;100752.93;;;7.43;90.90
61478;BME280;47345;52.334;10.392;2022-12-20T09:01:20;100747.80;;;7.45;90.73
61478;BME280;47345;52.334;10.392;2022-12-20T09:03:51;100754.08;;;7.47;90.63
61478;BME280;47345;52.334;10.392;2022-12-20T09:06:23;100751.23;;;7.47;90.54
61478;BME280;47345;52.334;10.392;2022-12-20T09:08:53;100755.08;;;7.49;90.47
61478;BME280;47345;52.334;10.392;2022-12-20T09:11:26;100748.26;;;7.50;90.31
61478;BME280;47345;52.334;10.392;2022-12-20T09:13:58;100741.65;;;7.51;90.28
61478;BME280;47345;52.334;10.392;2022-12-20T09:16:30;100738.36;;;7.52;90.29
61478;BME280;47345;52.334;10.392;2022-12-20T09:19:02;100732.15;;;7.54;90.17
61478;BME280;47345;52.334;10.392;2022-12-20T09:21:35;100729.76;;;7.56;90.12
61478;BME280;47345;52.334;10.392;2022-12-20T09:24:07;100729.88;;;7.57;89.91
61478;BME280;47345;52.334;10.392;2022-12-20T09:26:38;100729.77;;;7.61;90.04
61478;BME280;47345;52.334;10.392;2022-12-20T09:29:08;100736.00;;;7.63;89.92
61478;BME280;47345;52.334;10.392;2022-12-20T09:31:39;100744.56;;;7.64;89.68
61478;BME280;47345;52.334;10.392;2022-12-20T09:34:10;100753.67;;;7.65;89.64
61478;BME280;47345;52.334;10.392;2022-12-20T09:36:41;100753.32;;;7.67;89.53
61478;BME280;47345;52.334;10.392;2022-12-20T09:39:11;100760.25;;;7.68;89.50
61478;BME280;47345;52.334;10.392;2022-12-20T09:41:42;100752.06;;;7.70;89.47
61478;BME280;47345;52.334;10.392;2022-12-20T09:44:17;100738.32;;;7.73;89.38
61478;BME280;47345;52.334;10.392;2022-12-20T09:46:53;100730.27;;;7.74;89.51
61478;BME280;47345;52.334;10.392;2022-12-20T09:49:28;100708.58;;;7.76;89.13
61478;BME280;47345;52.334;10.392;2022-12-20T09:52:12;100705.66;;;7.80;89.08
61478;BME280;47345;52.334;10.392;2022-12-20T09:54:55;100698.45;;;7.84;88.96
61478;BME280;47345;52.334;10.392;2022-12-20T09:57:33;100694.06;;;7.87;88.77
61478;BME280;47345;52.334;10.392;2022-12-20T10:00:14;100696.02;;;7.90;88.55
61478;BME280;47345;52.334;10.392;2022-12-20T10:02:46;100696.82;;;7.94;88.47
61478;BME280;47345;52.334;10.392;2022-12-20T10:05:44;100695.31;;;7.99;88.16
61478;BME280;47345;52.334;10.392;2022-12-20T10:08:35;100696.98;;;8.02;88.16
61478;BME280;47345;52.334;10.392;2022-12-20T10:11:09;100700.60;;;8.06;87.99
61478;BME280;47345;52.334;10.392;2022-12-20T10:13:53;100697.90;;;8.09;87.91
61478;BME280;47345;52.334;10.392;2022-12-20T10:16:41;100691.91;;;8.13;87.72
61478;BME280;47345;52.334;10.392;2022-12-20T10:19:33;100686.52;;;8.17;87.66
61478;BME280;47345;52.334;10.392;2022-12-20T10:22:13;100677.83;;;8.21;87.38
61478;BME280;47345;52.334;10.392;2022-12-20T10:24:50;100675.52;;;8.24;87.30
61478;BME280;47345;52.334;10.392;2022-12-20T10:27:22;100679.64;;;8.30;87.22
61478;BME280;47345;52.334;10.392;2022-12-20T10:29:52;100676.22;;;8.34;87.07
61478;BME280;47345;52.334;10.392;2022-12-20T10:32:24;100675.80;;;8.39;86.99
61478;BME280;47345;52.334;10.392;2022-12-20T10:35:04;100672.36;;;8.43;87.06
61478;BME280;47345;52.334;10.392;2022-12-20T10:37:57;100668.25;;;8.47;86.74
61478;BME280;47345;52.334;10.392;2022-12-20T10:40:39;100668.05;;;8.51;86.84
61478;BME280;47345;52.334;10.392;2022-12-20T10:43:38;100667.47;;;8.56;86.75
61478;BME280;47345;52.334;10.392;2022-12-20T10:46:10;100672.86;;;8.60;86.67
61478;BME280;47345;52.334;10.392;2022-12-20T10:48:43;100667.52;;;8.62;86.38
61478;BME280;47345;52.334;10.392;2022-12-20T10:51:16;100664.14;;;8.64;86.27
61478;BME280;47345;52.334;10.392;2022-12-20T10:53:56;100663.18;;;8.65;86.36
61478;BME280;47345;52.334;10.392;2022-12-20T10:56:28;100663.80;;;8.68;86.32
61478;BME280;47345;52.334;10.392;2022-12-20T10:59:01;100663.65;;;8.70;86.11
61478;BME280;47345;52.334;10.392;2022-12-20T11:01:35;100652.13;;;8.73;86.02
61478;BME280;47345;52.334;10.392;2022-12-20T11:04:19;100650.64;;;8.76;85.97
61478;BME280;47345;52.334;10.392;2022-12-20T11:06:54;100647.94;;;8.78;85.99
61478;BME280;47345;52.334;10.392;2022-12-20T11:09:29;100643.20;;;8.80;86.01
61478;BME280;47345;52.334;10.392;2022-12-20T11:12:05;100642.69;;;8.82;85.77
61478;BME280;47345;52.334;10.392;2022-12-20T11:14:37;100644.38;;;8.85;85.79
61478;BME280;47345;52.334;10.392;2022-12-20T11:17:20;100636.34;;;8.88;85.61
61478;BME280;47345;52.334;10.392;2022-12-20T11:20:15;100626.58;;;8.89;85.55
61478;BME280;47345;52.334;10.392;2022-12-20T11:22:58;100624.79;;;8.92;85.57
61478;BME280;47345;52.334;10.392;2022-12-20T11:25:49;100621.54;;;8.94;85.41
61478;BME280;47345;52.334;10.392;2022-12-20T11:28:42;100615.05;;;8.97;85.24
61478;BME280;47345;52.334;10.392;2022-12-20T11:31:23;100612.17;;;8.99;85.17
61478;BME280;47345;52.334;10.392;2022-12-20T11:34:05;100621.78;;;9.02;85.00
61478;BME280;47345;52.334;10.392;2022-12-20T11:36:52;100619.40;;;9.05;84.89
61478;BME280;47345;52.334;10.392;2022-12-20T11:39:31;100615.58;;;9.09;84.80
61478;BME280;47345;52.334;10.392;2022-12-20T11:42:07;100611.00;;;9.17;84.56
61478;BME280;47345;52.334;10.392;2022-12-20T11:44:51;100610.34;;;9.25;84.48
61478;BME280;47345;52.334;10.392;2022-12-20T11:47:49;100598.77;;;9.32;84.25
61478;BME280;47345;52.334;10.392;2022-12-20T11:50:35;100593.58;;;9.40;84.21
61478;BME280;47345;52.334;10.392;2022-12-20T11:53:17;100590.45;;;9.47;84.05
61478;BME280;47345;52.334;10.392;2022-12-20T11:55:52;100596.73;;;9.55;83.92
61478;BME280;47345;52.334;10.392;2022-12-20T11:58:26;100594.61;;;9.61;83.67
61478;BME280;47345;52.334;10.392;2022-12-20T12:01:02;100595.34;;;9.67;83.52
61478;BME280;47345;52.334;10.392;2022-12-20T12:03:36;100585.37;;;9.72;83.28
61478;BME280;47345;52.334;10.392;2022-12-20T12:06:15;100585.33;;;9.76;83.12
61478;BME280;47345;52.334;10.392;2022-12-20T12:08:50;100577.48;;;9.79;83.09
61478;BME280;47345;52.334;10.392;2022-12-20T12:11:25;100575.05;;;9.81;82.93
61478;BME280;47345;52.334;10.392;2022-12-20T12:14:29;100573.54;;;9.83;82.78
61478;BME280;47345;52.334;10.392;2022-12-20T12:17:08;100572.11;;;9.84;82.50
61478;BME280;47345;52.334;10.392;2022-12-20T12:19:45;100565.10;;;9.86;82.36
61478;BME280;47345;52.334;10.392;2022-12-20T12:22:21;100560.57;;;9.89;82.29
61478;BME280;47345;52.334;10.392;2022-12-20T12:24:58;100557.80;;;9.92;82.03
61478;BME280;47345;52.334;10.392;2022-12-20T12:27:31;100549.06;;;9.94;81.84
61478;BME280;47345;52.334;10.392;2022-12-20T12:30:04;100545.40;;;9.96;81.73
61478;BME280;47345;52.334;10.392;2022-12-20T12:32:38;100536.70;;;9.96;81.43
61478;BME280;47345;52.334;10.392;2022-12-20T12:35:29;100533.64;;;9.94;81.28
61478;BME280;47345;52.334;10.392;2022-12-20T12:38:20;100532.50;;;9.92;81.08
61478;BME280;47345;52.334;10.392;2022-12-20T12:41:13;100535.81;;;9.90;81.17
61478;BME280;47345;52.334;10.392;2022-12-20T12:43:51;100530.18;;;9.88;80.95
61478;BME280;47345;52.334;10.392;2022-12-20T12:46:25;100527.94;;;9.87;80.99
61478;BME280;47345;52.334;10.392;2022-12-20T12:49:00;100528.54;;;9.87;80.73
61478;BME280;47345;52.334;10.392;2022-12-20T12:51:33;100535.76;;;9.87;80.77
61478;BME280;47345;52.334;10.392;2022-12-20T12:54:17;100529.29;;;9.87;80.78
61478;BME280;47345;52.334;10.392;2022-12-20T12:56:49;100522.40;;;9.85;80.82
61478;BME280;47345;52.334;10.392;2022-12-20T13:02:50;100513.75;;;9.89;80.86
61478;BME280;47345;52.334;10.392;2022-12-20T13:05:33;100513.02;;;9.89;80.79
61478;BME280;47345;52.334;10.392;2022-12-20T13:08:16;100508.98;;;9.92;80.60
61478;BME280;47345;52.334;10.392;2022-12-20T13:11:11;100510.85;;;9.93;80.54
61478;BME280;47345;52.334;10.392;2022-12-20T13:13:42;100512.40;;;9.92;80.47
61478;BME280;47345;52.334;10.392;2022-12-20T13:16:25;100512.94;;;9.91;80.51
61478;BME280;47345;52.334;10.392;2022-12-20T13:19:19;100505.67;;;9.88;80.51
61478;BME280;47345;52.334;10.392;2022-12-20T13:22:17;100502.05;;;9.86;80.51
61478;BME280;47345;52.334;10.392;2022-12-20T13:24:55;100496.58;;;9.83;80.41
61478;BME280;47345;52.334;10.392;2022-12-20T13:27:36;100494.90;;;9.83;80.56
61478;BME280;47345;52.334;10.392;2022-12-20T13:30:27;100495.45;;;9.81;80.34
61478;BME280;47345;52.334;10.392;2022-12-20T13:33:37;100499.86;;;9.82;80.49